createdAt,value
2019-06-15T00:01:17.627Z,96308.86
2019-06-15T00:03:48.753Z,96303.31
2019-06-15T00:06:19.656Z,96313.69
2019-06-15T00:08:50.725Z,96301.06
2019-06-15T00:11:21.616Z,96294.84
2019-06-15T00:13:52.698Z,96288.41
2019-06-15T00:16:23.616Z,96279.94
2019-06-15T00:18:55.237Z,96269.58
2019-06-15T00:21:25.863Z,96260.17
2019-06-15T00:23:56.720Z,96254.49
2019-06-15T00:26:28.120Z,96239.52
2019-06-15T00:28:58.946Z,96230.58
2019-06-15T00:31:30.904Z,96227.78
2019-06-15T00:34:08.591Z,96211.22
2019-06-15T01:03:04.541Z,96244.45
2019-06-15T01:05:35.932Z,96240.67
2019-06-15T01:08:06.540Z,96244.98
2019-06-15T01:10:38.506Z,96240.74
2019-06-15T01:13:09.438Z,96241.35
2019-06-15T01:15:41.788Z,96251.80
2019-06-15T01:18:12.742Z,96254.14
2019-06-15T01:20:43.477Z,96248.14
2019-06-15T01:23:14.838Z,96236.02
2019-06-15T01:25:46.968Z,96226.90
2019-06-15T01:28:18.438Z,96238.50
2019-06-15T01:30:49.850Z,96242.59
2019-06-15T01:33:20.830Z,96245.32
2019-06-15T01:35:53.926Z,96253.68
2019-06-15T01:38:25.554Z,96255.33
2019-06-15T01:40:56.407Z,96257.14
2019-06-15T01:43:27.741Z,96268.86
2019-06-15T01:45:58.688Z,96276.63
2019-06-15T01:48:30.067Z,96278.61
2019-06-15T01:51:01.341Z,96285.48
2019-06-15T01:53:32.840Z,96293.82
2019-06-15T01:56:04.708Z,96303.30
2019-06-15T01:58:36.003Z,96314.44
2019-06-15T02:01:07.087Z,96315.39
2019-06-15T02:03:38.795Z,96318.82
2019-06-15T02:06:09.475Z,96341.31
2019-06-15T02:08:40.426Z,96345.94
2019-06-15T02:11:11.391Z,96357.98
2019-06-15T02:13:44.320Z,96368.54
2019-06-15T02:16:15.966Z,96379.84
2019-06-15T02:18:46.842Z,96369.71
2019-06-15T02:21:17.772Z,96393.70
2019-06-15T02:23:49.539Z,96403.15
2019-06-15T02:26:20.142Z,96409.09
2019-06-15T02:28:51.667Z,96399.27
2019-06-15T02:31:23.094Z,96390.23
2019-06-15T02:33:54.033Z,96398.27
2019-06-15T02:36:25.071Z,96402.69
2019-06-15T02:38:56.304Z,96422.17
2019-06-15T02:41:27.255Z,96444.19
2019-06-15T02:43:58.688Z,96462.58
2019-06-15T02:46:29.978Z,96483.59
2019-06-15T02:49:01.148Z,96534.89
2019-06-15T02:51:32.745Z,96547.06
2019-06-15T02:54:03.361Z,96550.69
2019-06-15T02:56:35.171Z,96563.09
2019-06-15T02:59:05.747Z,96562.13
2019-06-15T03:01:36.999Z,96569.74
2019-06-15T03:04:07.570Z,96571.59
2019-06-15T03:06:39.236Z,96565.97
2019-06-15T03:09:10.285Z,96578.95
2019-06-15T03:11:42.060Z,96592.00
2019-06-15T03:14:12.959Z,96606.80
2019-06-15T03:16:43.907Z,96610.25
2019-06-15T03:19:15.210Z,96635.14
2019-06-15T03:21:45.543Z,96651.72
2019-06-15T03:24:17.015Z,96654.83
2019-06-15T03:26:48.325Z,96668.19
2019-06-15T03:29:19.664Z,96669.34
2019-06-15T03:31:51.688Z,96681.08
2019-06-15T03:34:23.005Z,96669.06
2019-06-15T03:36:55.447Z,96654.56
2019-06-15T03:39:26.521Z,96670.93
2019-06-15T03:41:57.525Z,96678.05
2019-06-15T03:44:28.345Z,96674.22
2019-06-15T03:46:59.582Z,96682.36
2019-06-15T03:49:30.558Z,96684.42
2019-06-15T03:52:01.036Z,96687.61
2019-06-15T03:54:31.626Z,96682.85
2019-06-15T03:57:02.805Z,96685.52
2019-06-15T03:59:34.037Z,96690.03
2019-06-15T04:02:05.389Z,96691.41
2019-06-15T04:04:36.680Z,96700.95
2019-06-15T04:07:07.630Z,96713.33
2019-06-15T04:09:39.091Z,96711.84
2019-06-15T04:12:10.529Z,96720.58
2019-06-15T04:14:42.119Z,96729.98
2019-06-15T04:17:13.673Z,96733.45
2019-06-15T04:19:44.621Z,96732.63
2019-06-15T04:22:17.178Z,96729.33
2019-06-15T04:24:48.768Z,96735.06
2019-06-15T04:27:20.282Z,96733.72
2019-06-15T04:29:51.527Z,96736.66
2019-06-15T04:32:22.444Z,96744.18
2019-06-15T04:34:53.336Z,96743.66
2019-06-15T04:37:24.860Z,96750.51
2019-06-15T04:39:56.153Z,96743.62
2019-06-15T04:42:27.114Z,96740.13
2019-06-15T04:44:58.064Z,96742.94
2019-06-15T04:47:29.241Z,96737.16
2019-06-15T04:50:00.721Z,96733.39
2019-06-15T04:52:32.006Z,96739.06
2019-06-15T04:55:03.493Z,96736.92
2019-06-15T04:57:34.126Z,96743.19
2019-06-15T05:00:05.834Z,96746.94
2019-06-15T05:02:37.212Z,96747.47
2019-06-15T05:05:10.089Z,96751.80
2019-06-15T05:07:41.419Z,96750.65
2019-06-15T05:10:14.090Z,96759.31
2019-06-15T05:12:45.280Z,96759.69
2019-06-15T05:15:16.286Z,96765.88
2019-06-15T05:17:47.746Z,96778.40
2019-06-15T05:20:18.826Z,96777.31
2019-06-15T05:22:50.639Z,96773.81
2019-06-15T05:25:21.776Z,96780.62
2019-06-15T05:27:52.750Z,96777.02
2019-06-15T05:30:24.250Z,96781.27
2019-06-15T05:32:55.537Z,96781.14
2019-06-15T05:35:26.483Z,96782.86
2019-06-15T05:37:58.413Z,96782.17
2019-06-15T05:40:28.699Z,96789.89
2019-06-15T05:42:59.300Z,96801.09
2019-06-15T05:45:29.850Z,96810.47
2019-06-15T05:48:00.988Z,96812.98
2019-06-15T05:50:31.875Z,96803.08
2019-06-15T05:53:03.527Z,96805.32
2019-06-15T05:55:34.174Z,96803.62
2019-06-15T05:58:04.879Z,96809.47
2019-06-15T06:00:36.149Z,96807.89
2019-06-15T06:03:07.099Z,96810.59
2019-06-15T06:05:38.022Z,96811.97
2019-06-15T06:08:08.762Z,96809.49
2019-06-15T06:10:39.070Z,96810.58
2019-06-15T06:13:10.322Z,96811.34
2019-06-15T06:15:41.490Z,96817.94
2019-06-15T06:18:12.417Z,96821.78
2019-06-15T06:20:43.830Z,96825.06
2019-06-15T06:23:15.511Z,96825.80
2019-06-15T06:25:46.528Z,96819.67
2019-06-15T06:28:17.492Z,96834.62
2019-06-15T06:30:48.336Z,96833.19
2019-06-15T06:33:19.695Z,96835.91
2019-06-15T06:35:50.324Z,96840.46
2019-06-15T06:38:22.025Z,96840.02
2019-06-15T06:40:53.287Z,96846.56
2019-06-15T06:43:24.977Z,96853.44
2019-06-15T06:45:55.924Z,96858.83
2019-06-15T06:48:26.979Z,96860.55
2019-06-15T06:50:57.887Z,96860.36
2019-06-15T06:53:29.228Z,96864.20
2019-06-15T06:56:00.308Z,96862.80
2019-06-15T06:58:31.650Z,96871.16
2019-06-15T07:01:02.927Z,96874.48
2019-06-15T07:03:34.182Z,96878.96
2019-06-15T07:06:04.849Z,96879.67
2019-06-15T07:08:35.812Z,96878.76
2019-06-15T07:11:06.746Z,96885.78
2019-06-15T07:13:37.980Z,96891.57
2019-06-15T07:16:08.643Z,96888.42
2019-06-15T07:18:39.534Z,96890.30
2019-06-15T07:21:10.485Z,96888.87
2019-06-15T07:23:41.081Z,96889.73
2019-06-15T07:26:12.357Z,96890.03
2019-06-15T07:28:44.285Z,96890.29
2019-06-15T07:31:15.354Z,96887.71
2019-06-15T07:33:46.685Z,96894.86
2019-06-15T07:36:18.105Z,96892.47
2019-06-15T07:38:49.638Z,96896.39
2019-06-15T07:41:20.854Z,96896.02
2019-06-15T07:43:52.076Z,96909.94
2019-06-15T07:46:23.366Z,96907.27
2019-06-15T07:48:54.590Z,96904.30
2019-06-15T07:51:25.905Z,96913.47
2019-06-15T07:53:57.038Z,96918.50
2019-06-15T07:56:27.733Z,96922.22
2019-06-15T07:58:59.576Z,96914.06
2019-06-15T08:01:30.680Z,96926.48
2019-06-15T08:04:01.357Z,96922.73
2019-06-15T08:06:32.797Z,96921.09
2019-06-15T08:09:03.429Z,96929.89
2019-06-15T08:11:34.981Z,96926.21
2019-06-15T08:14:05.928Z,96931.77
2019-06-15T08:16:36.932Z,96941.00
2019-06-15T08:19:07.928Z,96945.30
2019-06-15T08:21:39.207Z,96947.06
2019-06-15T08:24:10.186Z,96946.88
2019-06-15T08:26:41.252Z,96951.29
2019-06-15T08:29:12.471Z,96960.13
2019-06-15T08:31:43.671Z,96960.59
2019-06-15T08:34:14.353Z,96960.37
2019-06-15T08:36:45.021Z,96968.13
2019-06-15T08:39:16.025Z,96960.86
2019-06-15T08:41:46.335Z,96970.13
2019-06-15T08:44:17.796Z,96974.13
2019-06-15T08:46:49.270Z,96975.87
2019-06-15T08:49:20.226Z,96980.09
2019-06-15T08:51:51.428Z,96978.58
2019-06-15T08:54:22.737Z,96976.50
2019-06-15T08:56:53.950Z,96983.33
2019-06-15T08:59:25.075Z,96982.20
2019-06-15T09:01:55.961Z,96989.42
2019-06-15T09:04:27.246Z,96995.67
2019-06-15T09:06:58.192Z,97001.05
2019-06-15T09:09:29.953Z,97000.70
2019-06-15T09:12:00.866Z,96992.96
2019-06-15T09:14:31.504Z,96993.16
2019-06-15T09:17:02.499Z,96984.23
2019-06-15T09:19:33.564Z,96987.95
2019-06-15T09:22:04.164Z,96979.14
2019-06-15T09:24:35.471Z,96985.06
2019-06-15T09:27:06.421Z,96982.19
2019-06-15T09:29:38.699Z,96975.19
2019-06-15T09:32:09.540Z,96989.03
2019-06-15T09:34:42.955Z,96984.95
2019-06-15T09:37:13.876Z,96988.73
2019-06-15T09:39:45.510Z,96982.79
2019-06-15T09:42:16.078Z,96988.81
2019-06-15T09:44:47.656Z,96985.22
2019-06-15T09:47:18.527Z,96979.66
2019-06-15T09:49:49.585Z,96973.14
2019-06-15T09:52:20.225Z,96983.83
2019-06-15T09:54:51.574Z,96978.55
2019-06-15T09:57:22.852Z,96980.64
2019-06-15T09:59:55.029Z,96980.48
2019-06-15T10:02:26.566Z,96984.53
2019-06-15T10:04:57.555Z,96998.41
2019-06-15T10:07:28.707Z,96990.52
2019-06-15T10:09:59.959Z,96996.52
2019-06-15T10:12:30.978Z,96991.47
2019-06-15T10:15:02.316Z,96994.35
2019-06-15T10:17:33.189Z,96985.68
2019-06-15T10:20:05.601Z,96984.81
2019-06-15T10:22:36.762Z,96985.75
2019-06-15T10:25:09.054Z,96982.05
2019-06-15T10:27:40.136Z,96985.26
2019-06-15T10:30:12.384Z,96987.66
2019-06-15T10:32:44.011Z,96981.35
2019-06-15T10:35:16.013Z,96989.36
2019-06-15T10:37:46.856Z,96979.05
2019-06-15T10:40:18.658Z,96984.12
2019-06-15T10:42:49.896Z,96985.80
2019-06-15T10:45:20.567Z,96977.22
2019-06-15T10:47:51.123Z,96974.00
2019-06-15T10:50:21.823Z,96975.94
2019-06-15T10:52:52.721Z,96975.56
2019-06-15T10:55:23.854Z,96982.18
2019-06-15T10:57:55.092Z,96980.83
2019-06-15T11:00:27.460Z,96977.94
2019-06-15T11:02:58.789Z,96974.20
2019-06-15T11:05:29.513Z,96972.94
2019-06-15T11:08:00.277Z,96969.61
2019-06-15T11:10:54.132Z,96974.30
2019-06-15T11:13:24.763Z,96971.16
2019-06-15T11:15:56.001Z,96980.94
2019-06-15T11:18:28.075Z,96981.57
2019-06-15T11:20:59.947Z,96974.55
2019-06-15T11:23:31.188Z,96969.61
2019-06-15T11:26:02.536Z,96967.28
2019-06-15T11:28:33.207Z,96967.25
2019-06-15T11:31:03.832Z,96975.97
2019-06-15T11:33:35.146Z,96974.77
2019-06-15T11:36:06.159Z,96969.20
2019-06-15T11:38:37.316Z,96967.88
2019-06-15T11:41:08.021Z,96965.51
2019-06-15T11:43:38.671Z,96969.92
2019-06-15T11:46:10.595Z,96975.30
2019-06-15T11:48:41.250Z,96970.31
2019-06-15T11:51:12.853Z,96971.24
2019-06-15T11:53:44.154Z,96973.67
2019-06-15T11:56:15.139Z,96966.83
2019-06-15T11:58:46.445Z,96961.78
2019-06-15T12:01:19.007Z,96964.28
2019-06-15T12:03:50.644Z,96964.76
2019-06-15T12:06:21.519Z,96964.04
2019-06-15T12:08:53.186Z,96966.84
2019-06-15T12:11:24.112Z,96962.27
2019-06-15T12:13:54.949Z,96951.47
2019-06-15T12:16:25.644Z,96954.83
2019-06-15T12:18:56.654Z,96950.89
2019-06-15T12:21:28.284Z,96951.69
2019-06-15T12:23:59.301Z,96943.16
2019-06-15T12:26:30.611Z,96948.02
2019-06-15T12:29:01.790Z,96949.75
2019-06-15T12:31:37.373Z,96944.23
2019-06-15T12:34:08.292Z,96943.78
2019-06-15T12:36:39.659Z,96941.28
2019-06-15T12:39:10.271Z,96937.92
2019-06-15T12:41:42.060Z,96938.95
2019-06-15T12:44:13.271Z,96930.98
2019-06-15T12:46:44.012Z,96936.19
2019-06-15T12:49:15.329Z,96931.36
2019-06-15T12:51:47.171Z,96930.67
2019-06-15T12:54:18.643Z,96929.53
2019-06-15T12:56:50.003Z,96919.78
2019-06-15T12:59:20.866Z,96926.48
2019-06-15T13:01:52.455Z,96922.26
2019-06-15T13:04:23.635Z,96922.13
2019-06-15T13:06:55.158Z,96920.70
2019-06-15T13:09:26.367Z,96918.16
2019-06-15T13:11:57.979Z,96912.39
2019-06-15T13:14:28.874Z,96905.38
2019-06-15T13:17:02.551Z,96912.09
2019-06-15T13:19:33.981Z,96906.66
2019-06-15T13:22:06.425Z,96898.38
2019-06-15T13:24:37.295Z,96904.16
2019-06-15T13:27:08.248Z,96895.09
2019-06-15T13:29:39.309Z,96902.77
2019-06-15T13:32:10.709Z,96889.72
2019-06-15T13:34:42.679Z,96893.43
2019-06-15T13:37:14.057Z,96890.66
2019-06-15T13:39:45.059Z,96888.16
2019-06-15T13:42:16.573Z,96886.66
2019-06-15T13:44:47.904Z,96882.33
2019-06-15T13:47:28.892Z,96880.70
2019-06-15T13:49:59.828Z,96874.28
2019-06-15T13:52:32.167Z,96873.95
2019-06-15T13:55:03.829Z,96877.27
2019-06-15T13:57:35.192Z,96864.62
2019-06-15T14:00:07.427Z,96868.64
2019-06-15T14:02:39.505Z,96871.48
2019-06-15T14:05:10.918Z,96860.30
2019-06-15T14:07:42.198Z,96858.94
2019-06-15T14:10:13.701Z,96861.48
2019-06-15T14:12:44.654Z,96859.61
2019-06-15T14:15:16.574Z,96854.81
2019-06-15T14:17:47.624Z,96856.98
2019-06-15T14:20:19.217Z,96850.64
2019-06-15T14:22:50.864Z,96854.47
2019-06-15T14:25:21.560Z,96848.23
2019-06-15T14:27:53.409Z,96847.57
2019-06-15T14:30:24.143Z,96853.77
2019-06-15T14:32:56.008Z,96842.06
2019-06-15T14:35:27.518Z,96837.91
2019-06-15T14:37:59.084Z,96839.82
2019-06-15T14:40:30.419Z,96837.77
2019-06-15T14:43:01.128Z,96842.11
2019-06-15T14:45:32.090Z,96838.89
2019-06-15T14:48:03.554Z,96840.64
2019-06-15T14:50:34.503Z,96832.52
2019-06-15T14:53:06.014Z,96829.48
2019-06-15T14:55:36.757Z,96824.52
2019-06-15T14:58:07.941Z,96819.09
2019-06-15T15:00:38.686Z,96821.52
2019-06-15T15:03:09.402Z,96817.33
2019-06-15T15:05:40.778Z,96804.91
2019-06-15T15:08:11.989Z,96808.77
2019-06-15T15:10:43.359Z,96803.74
2019-06-15T15:13:14.406Z,96805.24
2019-06-15T15:15:46.790Z,96794.68
2019-06-15T15:18:18.265Z,96790.58
2019-06-15T15:20:49.269Z,96789.78
2019-06-15T15:23:20.298Z,96788.47
2019-06-15T15:25:51.761Z,96785.28
2019-06-15T15:28:23.128Z,96779.56
2019-06-15T15:30:54.568Z,96779.22
2019-06-15T15:33:26.165Z,96771.80
2019-06-15T15:35:57.782Z,96775.27
2019-06-15T15:38:28.798Z,96772.20
2019-06-15T15:40:59.729Z,96766.02
2019-06-15T15:43:31.457Z,96767.86
2019-06-15T15:46:03.045Z,96765.59
2019-06-15T15:48:33.390Z,96764.36
2019-06-15T15:51:06.484Z,96765.56
2019-06-15T15:53:37.508Z,96758.78
2019-06-15T15:56:07.971Z,96761.95
2019-06-15T15:58:39.193Z,96760.81
2019-06-15T16:01:11.335Z,96756.22
2019-06-15T16:03:42.303Z,96759.64
2019-06-15T16:06:13.291Z,96751.16
2019-06-15T16:08:46.990Z,96756.54
2019-06-15T16:11:16.916Z,96759.03
2019-06-15T16:13:48.110Z,96758.58
2019-06-15T16:16:19.317Z,96760.98
2019-06-15T16:18:50.847Z,96753.89
2019-06-15T16:21:22.109Z,96750.88
2019-06-15T16:23:57.585Z,96753.28
2019-06-15T16:26:27.431Z,96756.08
2019-06-15T16:28:58.740Z,96760.61
2019-06-15T16:31:29.757Z,96765.28
2019-06-15T16:34:01.149Z,96754.22
2019-06-15T16:36:31.835Z,96753.63
2019-06-15T16:39:03.205Z,96752.35
2019-06-15T16:41:36.256Z,96754.91
2019-06-15T16:44:07.386Z,96752.59
2019-06-15T16:46:38.631Z,96761.19
2019-06-15T16:49:09.316Z,96763.37
2019-06-15T16:51:40.274Z,96761.26
2019-06-15T16:54:11.589Z,96759.39
2019-06-15T16:56:43.063Z,96767.90
2019-06-15T16:59:14.275Z,96773.98
2019-06-15T17:01:45.224Z,96777.09
2019-06-15T17:04:17.014Z,96782.31
2019-06-15T17:06:48.280Z,96779.76
2019-06-15T17:09:19.588Z,96781.83
2019-06-15T17:11:50.202Z,96785.36
2019-06-15T17:14:21.777Z,96786.86
2019-06-15T17:16:53.417Z,96782.70
2019-06-15T17:19:26.932Z,96778.88
2019-06-15T17:22:13.771Z,96774.80
2019-06-15T17:24:30.717Z,96772.31
2019-06-15T17:27:01.989Z,96775.03
2019-06-15T17:29:33.527Z,96776.47
2019-06-15T17:32:06.220Z,96779.16
2019-06-15T17:34:37.278Z,96778.77
2019-06-15T17:37:08.679Z,96779.38
2019-06-15T17:39:40.567Z,96777.88
2019-06-15T17:42:11.978Z,96770.72
2019-06-15T17:44:43.057Z,96769.33
2019-06-15T17:47:16.766Z,96770.41
2019-06-15T17:49:47.314Z,96778.69
2019-06-15T17:52:18.888Z,96779.94
2019-06-15T17:54:49.900Z,96775.22
2019-06-15T17:57:20.841Z,96770.09
2019-06-15T17:59:51.461Z,96762.63
2019-06-15T18:02:22.753Z,96762.52
2019-06-15T18:04:53.742Z,96763.30
2019-06-15T18:07:26.206Z,96764.66
2019-06-15T18:09:57.376Z,96759.83
2019-06-15T18:12:27.928Z,96764.72
2019-06-15T18:14:59.128Z,96762.36
2019-06-15T18:17:30.371Z,96756.40
2019-06-15T18:20:01.594Z,96755.63
2019-06-15T18:22:33.233Z,96751.91
2019-06-15T18:25:06.486Z,96746.59
2019-06-15T18:27:37.491Z,96739.98
2019-06-15T18:30:08.264Z,96728.89
2019-06-15T18:32:39.482Z,96719.26
2019-06-15T18:35:10.132Z,96712.98
2019-06-15T18:37:41.368Z,96720.48
2019-06-15T18:40:12.517Z,96731.84
2019-06-15T18:42:46.346Z,96746.39
2019-06-15T18:45:16.839Z,96779.47
2019-06-15T18:47:48.389Z,96790.16
2019-06-15T18:50:34.149Z,96804.84
2019-06-15T18:53:07.195Z,96819.24
2019-06-15T18:55:38.638Z,96847.67
2019-06-15T18:58:09.374Z,96860.30
2019-06-15T19:00:40.293Z,96892.44
2019-06-15T19:03:11.799Z,96969.88
2019-06-15T19:05:42.380Z,97022.42
2019-06-15T19:08:13.609Z,97075.77
2019-06-15T19:10:46.589Z,97111.90
2019-06-15T19:13:16.979Z,120033.27
2019-06-15T19:15:48.336Z,120033.27
2019-06-15T19:18:18.979Z,120033.14
2019-06-15T19:20:50.802Z,120033.27
2019-06-15T19:23:22.529Z,120033.27
2019-06-15T19:25:53.694Z,120033.27
2019-06-15T19:28:26.737Z,120033.27
2019-06-15T19:30:59.028Z,120033.27
2019-06-15T19:33:29.982Z,120033.27
2019-06-15T19:36:01.251Z,120033.27
2019-06-15T19:38:32.639Z,120033.27
2019-06-15T19:41:03.498Z,120033.27
2019-06-15T19:43:36.309Z,120033.27
2019-06-15T19:46:07.053Z,120033.27
2019-06-15T19:48:38.807Z,120033.27
2019-06-15T19:51:10.310Z,120033.27
2019-06-15T19:53:42.087Z,120033.27
2019-06-15T19:56:13.187Z,120033.27
2019-06-15T19:58:46.129Z,120033.27
2019-06-15T20:01:16.932Z,120033.27
2019-06-15T20:03:48.191Z,120033.27
2019-06-15T20:06:19.429Z,120033.27
2019-06-15T20:08:50.713Z,120033.27
2019-06-15T20:11:21.639Z,120033.27
2019-06-15T20:13:53.368Z,120033.27
2019-06-15T20:16:24.989Z,120033.27
2019-06-15T20:18:56.380Z,120033.27
2019-06-15T20:21:27.707Z,120033.27
2019-06-15T20:23:59.214Z,120033.27
2019-06-15T20:26:30.627Z,120033.27
2019-06-15T20:29:02.133Z,120033.27
2019-06-15T20:31:33.421Z,120033.27
2019-06-15T20:34:04.377Z,120033.27
2019-06-15T20:36:36.690Z,120033.27
2019-06-15T20:39:08.979Z,120033.27
2019-06-15T20:41:40.253Z,120033.27
2019-06-15T20:44:11.902Z,120033.27
2019-06-15T20:46:42.853Z,120033.27
2019-06-15T20:49:14.096Z,120033.27
2019-06-15T20:51:46.286Z,120033.27
2019-06-15T20:54:17.570Z,120033.27
2019-06-15T20:56:48.831Z,120033.27
2019-06-15T20:59:20.214Z,120033.27
2019-06-15T21:01:51.549Z,120033.27
2019-06-15T21:04:22.550Z,120033.27
2019-06-15T21:06:53.543Z,120033.27
2019-06-15T21:09:27.600Z,120033.27
2019-06-15T21:11:58.271Z,120033.27
2019-06-15T21:14:29.150Z,120033.27
2019-06-15T21:17:00.831Z,120033.27
2019-06-15T21:19:31.806Z,120033.27
2019-06-15T21:22:02.873Z,120033.27
2019-06-15T21:24:33.844Z,120033.27
2019-06-15T21:27:06.228Z,120033.27
2019-06-15T21:29:37.218Z,120033.27
2019-06-15T21:32:08.463Z,120033.27
2019-06-15T21:34:39.343Z,120033.27
2019-06-15T21:37:10.470Z,120033.27
2019-06-15T21:39:41.507Z,120033.27
2019-06-15T21:42:12.752Z,120033.27
2019-06-15T21:44:46.782Z,120033.27
2019-06-15T21:47:16.948Z,120033.27
2019-06-15T21:49:48.594Z,120033.27
2019-06-15T21:52:19.547Z,120033.27
2019-06-15T21:54:51.272Z,120033.27
2019-06-15T21:57:22.366Z,120033.27
2019-06-15T21:59:53.676Z,120033.27
2019-06-15T22:02:26.633Z,120033.27
2019-06-15T22:04:57.440Z,120033.27
2019-06-15T22:07:28.703Z,120033.27
2019-06-15T22:10:00.290Z,120033.27
2019-06-15T22:12:31.282Z,120033.27
2019-06-15T22:15:02.203Z,120033.27
2019-06-15T22:18:10.105Z,120033.27
2019-06-15T22:20:41.644Z,120033.27
2019-06-15T22:23:13.424Z,120033.27
2019-06-15T22:25:46.428Z,120033.27
2019-06-15T22:28:17.527Z,120033.27
2019-06-15T22:30:48.631Z,120033.27
2019-06-15T22:33:19.946Z,120033.27
2019-06-15T22:35:51.157Z,120033.27
2019-06-15T22:38:22.105Z,120033.27
2019-06-15T22:40:53.372Z,120033.27
2019-06-15T22:43:24.385Z,120033.27
2019-06-15T22:45:56.126Z,120033.27
2019-06-15T22:48:27.294Z,120033.27
2019-06-15T22:50:59.297Z,120033.27
2019-06-15T22:53:31.018Z,120033.27
2019-06-15T22:56:01.626Z,120033.27
2019-06-15T22:58:32.905Z,120033.27
2019-06-15T23:01:05.885Z,120033.27
2019-06-15T23:03:36.316Z,120033.27
2019-06-15T23:06:07.976Z,120033.27
2019-06-15T23:08:39.306Z,120033.27
2019-06-15T23:11:10.245Z,120033.27
2019-06-15T23:13:40.933Z,120033.27
2019-06-15T23:16:11.941Z,120033.27
2019-06-15T23:18:43.003Z,120033.27
2019-06-15T23:21:13.665Z,120033.27
2019-06-15T23:23:46.863Z,120033.27
2019-06-15T23:26:17.011Z,120033.27
2019-06-15T23:28:48.649Z,120033.27
2019-06-15T23:31:19.918Z,120033.27
2019-06-15T23:33:51.673Z,120033.27
2019-06-15T23:36:27.626Z,120033.27
2019-06-15T23:38:58.662Z,120033.27
2019-06-15T23:41:29.615Z,120033.27
2019-06-15T23:44:00.620Z,120033.27
2019-06-15T23:46:32.314Z,120033.27
2019-06-15T23:49:03.289Z,120033.27
2019-06-15T23:51:37.029Z,120033.27
2019-06-15T23:54:08.580Z,120033.27
2019-06-15T23:56:39.519Z,120033.27
2019-06-15T23:59:10.569Z,120033.27
